Bookmark and Share
Track history (hours):
 

Ft Sturla

Last reported at 2014-Apr-23 21:32 UTC. Time now 2014-Apr-24 11:20 UTC.
Position N 43°28' E 005°09'.

Length 120 m; draft 5.3 m.

Type: Tanker. MMSI: 247282200.

NotesDate/timePositionNaut miles runAvg speedWind from/ knotsBaromVisibWave heightAir tempDewpointWater temp
2014-Apr-23 21:32N 43°28' E 005°09'5 5.1
2014-Apr-23 20:33N 43°24' E 005°04'5 4.7
2014-Apr-23 19:33N 43°24' E 004°57'0 0.0
2014-Apr-23 18:31N 43°24' E 004°57'0 0.0
2014-Apr-23 17:31N 43°24' E 004°57'0 0.0
2014-Apr-23 16:31N 43°24' E 004°57'0 0.0
2014-Apr-23 15:28N 43°24' E 004°57'0 0.0
2014-Apr-23 14:31N 43°24' E 004°57'0 0.0
2014-Apr-23 13:31N 43°24' E 004°57'0 0.0
2014-Apr-23 12:31N 43°24' E 004°57'0 0.0
2014-Apr-23 11:31N 43°24' E 004°57'0 0.0
2014-Apr-23 10:31N 43°24' E 004°57'0 0.1
2014-Apr-23 09:31N 43°24' E 004°57'0 0.0
2014-Apr-23 08:31N 43°24' E 004°57'0 0.0
2014-Apr-23 07:31N 43°24' E 004°57'0 0.0
2014-Apr-23 06:31N 43°24' E 004°57'0 0.0
2014-Apr-23 05:28N 43°24' E 004°57'0 0.0
2014-Apr-23 04:31N 43°24' E 004°57'0 0.0
2014-Apr-23 03:31N 43°24' E 004°57'0 0.0
2014-Apr-23 02:31N 43°24' E 004°57'0 0.1
2014-Apr-23 01:31N 43°24' E 004°57'0 0.0
2014-Apr-23 00:34N 43°24' E 004°57'0 0.0
2014-Apr-22 23:31N 43°24' E 004°57'0 0.0
2014-Apr-22 22:31N 43°24' E 004°57'0 0.0
2014-Apr-22 21:31N 43°24' E 004°57'0 0.0
2014-Apr-22 20:31N 43°24' E 004°57'0 0.0
2014-Apr-22 19:31N 43°24' E 004°57'0 0.1
2014-Apr-22 18:31N 43°24' E 004°57'0 0.0
2014-Apr-22 17:31N 43°24' E 004°57'0 0.1
2014-Apr-22 16:34N 43°24' E 004°57'0 0.1
2014-Apr-22 15:34N 43°24' E 004°57'4 4.2
2014-Apr-22 14:34N 43°20' E 004°59'1111.4
2014-Apr-22 13:33N 43°09' E 005°03'1410.9
2014-Apr-22 12:17N 42°55' E 005°02'6 8.3
2014-Apr-22 11:32N 42°50' E 004°58'3 3.5
2014-Apr-22 10:32N 42°47' E 004°55'7 7.0
2014-Apr-22 09:33N 42°47' E 005°05'9 9.2
2014-Apr-22 08:33N 42°51' E 004°53'7 6.7
2014-Apr-22 07:33N 42°48' E 005°02'21 3.5
2014-Apr-22 01:31N 42°28' E 004°54'1010.7
2014-Apr-22 00:33N 42°18' E 004°51'430425.9
2014-Apr-21 23:32N 35°08' E 004°49'409403.8
2014-Apr-21 22:31N 41°57' E 004°48'1111.0
2014-Apr-21 21:32N 41°46' E 004°45'1110.5
2014-Apr-21 20:30N 41°36' E 004°41'7 1.1
2014-Apr-21 14:09N 41°29' E 004°42'4 6.0
2014-Apr-21 13:33N 41°25' E 004°41'1110.6
2014-Apr-21 12:32N 41°14' E 004°39'122 4.8
2014-Apr-20 11:09N 39°22' E 003°37'1312.5
2014-Apr-20 10:04N 39°15' E 003°23'812.1
2014-Apr-20 09:24N 39°10' E 003°15'1111.2
2014-Apr-20 08:27N 39°04' E 003°03'12 9.8
2014-Apr-20 07:17N 39°06' E 002°49'912.3
2014-Apr-20 06:33N 39°13' E 002°41'1211.7
2014-Apr-20 05:31N 39°23' E 002°32'1110.1
2014-Apr-20 04:23N 39°33' E 002°38'0 0.0
2014-Apr-20 03:30N 39°33' E 002°38'0 0.0
2014-Apr-20 02:20N 39°33' E 002°38'0 0.0
2014-Apr-19 23:32N 39°33' E 002°38'0 0.0
2014-Apr-19 22:10N 39°33' E 002°38'0 0.0
2014-Apr-19 21:08N 39°33' E 002°38'0 0.0
2014-Apr-19 20:23N 39°33' E 002°38'0 0.0
2014-Apr-19 18:30N 39°33' E 002°38'0 0.0
2014-Apr-19 17:15N 39°33' E 002°38'0 0.0
2014-Apr-19 16:33N 39°33' E 002°38'3 0.6
2014-Apr-19 12:17N 39°30' E 002°38'811.7
2014-Apr-19 11:33N 39°23' E 002°32'1110.8
2014-Apr-19 10:33N 39°27' E 002°19'1210.3
2014-Apr-19 09:25N 39°36' E 002°11'1012.1
2014-Apr-19 08:33N 39°47' E 002°11'1212.0
2014-Apr-19 07:33N 39°59' E 002°11'1212.6
2014-Apr-19 06:34N 40°11' E 002°11'1212.3
2014-Apr-19 05:33N 40°24' E 002°11'1211.8
2014-Apr-19 04:33N 40°35' E 002°11'1212.1
2014-Apr-19 03:33N 40°47' E 002°11'1212.1
2014-Apr-19 02:33N 40°60' E 002°10'1212.1
2014-Apr-19 01:32N 41°12' E 002°11'9 2.9
2014-Apr-18 22:33N 41°20' E 002°10'0 0.0
2014-Apr-18 21:33N 41°20' E 002°10'0 0.0
2014-Apr-18 20:09N 41°20' E 002°10'0 0.0
2014-Apr-18 19:33N 41°20' E 002°10'0 0.0
2014-Apr-18 15:27N 41°20' E 002°10'0 0.0
2014-Apr-18 14:03N 41°20' E 002°10'0 0.0
2014-Apr-18 13:27N 41°20' E 002°10'0 0.0
2014-Apr-18 12:09N 41°20' E 002°10'0 0.0
2014-Apr-18 11:15N 41°20' E 002°10'0 0.0
2014-Apr-18 10:27N 41°20' E 002°10'0 0.0
2014-Apr-18 08:03N 41°20' E 002°10'0 0.2
2014-Apr-18 06:29N 41°20' E 002°10'1 0.4
2014-Apr-18 03:30N 41°19' E 002°11'0 0.0
2014-Apr-17 07:05N 41°19' E 002°11'0 0.0
2014-Apr-16 04:17N 41°19' E 002°11'0 0.0
2014-Apr-16 02:30N 41°19' E 002°11'0 0.1
2014-Apr-16 01:30N 41°19' E 002°11'0 0.0
2014-Apr-16 00:11N 41°19' E 002°11'0 0.0
2014-Apr-15 23:18N 41°19' E 002°11'0 0.0
2014-Apr-15 20:17N 41°19' E 002°11'0 0.0
2014-Apr-15 09:30N 41°19' E 002°11'0 0.0
2014-Apr-15 08:30N 41°19' E 002°11'0 0.0
2014-Apr-15 03:30N 41°19' E 002°11'0 0.0
2014-Apr-15 00:30N 41°19' E 002°11'0 0.0
2014-Apr-14 22:33N 41°19' E 002°11'0 0.0
2014-Apr-14 21:33N 41°19' E 002°11'0 0.0
2014-Apr-14 20:30N 41°19' E 002°11'0 0.0
2014-Apr-14 13:33N 41°19' E 002°11'71 4.6
2014-Apr-13 22:09N 41°58' E 003°31'813.4
2014-Apr-13 21:33N 42°04' E 003°38'  

Dump ship's entire track history

sailing weather and tide predictions

Ft Sturla — IBXV — position and weather